Time;durP1;ratioP1;P1;durP2;ratioP2;P2;SDS_P1;SDS_P2;PMS_P1;PMS_P2;Temp;Humidity;BMP_temperature;BMP_pressure;BME280_temperature;BME280_humidity;BME280_pressure;Samples;Min_cycle;Max_cycle;Signal;HPM_P1;HPM_P2
2023/06/27 00:03:00;;;;;;;8.25;4.93;;;;;;;18.46;100.00;100035.47;5586706;31;35103;-68
2023/06/27 00:06:04;;;;;;;9.07;4.85;;;;;;;18.43;100.00;100039.44;5586649;31;33780;-68
2023/06/27 00:09:10;;;;;;;9.60;4.85;;;;;;;18.40;100.00;100031.00;5586705;31;33863;-68
2023/06/27 00:12:13;;;;;;;9.18;4.78;;;;;;;18.35;100.00;100033.56;5586588;31;34003;-68
2023/06/27 00:15:18;;;;;;;8.95;5.10;;;;;;;18.34;100.00;100035.44;5586482;31;35652;-68
2023/06/27 00:18:22;;;;;;;7.47;4.72;;;;;;;18.29;100.00;100034.47;5586805;31;34760;-68
2023/06/27 00:21:28;;;;;;;7.82;4.80;;;;;;;18.33;100.00;100038.34;5586243;31;34770;-68
2023/06/27 00:24:31;;;;;;;10.05;4.90;;;;;;;18.25;100.00;100037.59;5586400;31;34137;-68
2023/06/27 00:27:34;;;;;;;9.32;4.90;;;;;;;18.25;100.00;100040.28;5586320;31;34191;-68
2023/06/27 00:30:37;;;;;;;7.15;4.65;;;;;;;18.24;100.00;100045.88;5586311;31;34188;-68
2023/06/27 00:33:39;;;;;;;8.70;5.30;;;;;;;18.12;100.00;100040.44;5586242;31;35161;-68
2023/06/27 00:36:42;;;;;;;8.05;4.50;;;;;;;18.06;100.00;100035.12;5586182;31;34040;-68
2023/06/27 00:39:45;;;;;;;9.70;4.60;;;;;;;18.04;100.00;100040.75;5586114;31;34231;-68
2023/06/27 00:42:48;;;;;;;8.10;4.90;;;;;;;18.02;100.00;100047.37;5586140;31;35535;-68
2023/06/27 00:45:50;;;;;;;8.00;4.70;;;;;;;18.00;100.00;100044.94;5586011;31;34598;-68
2023/06/27 00:48:53;;;;;;;8.02;4.43;;;;;;;18.06;100.00;100061.97;5586077;31;34154;-68
2023/06/27 00:51:57;;;;;;;6.43;4.28;;;;;;;18.08;100.00;100059.91;5585847;31;34163;-68
2023/06/27 00:55:00;;;;;;;9.73;4.68;;;;;;;18.12;100.00;100061.09;5586000;31;33979;-67
2023/06/27 00:58:03;;;;;;;7.47;4.75;;;;;;;18.12;100.00;100053.03;5580119;31;34185;-67
2023/06/27 01:01:06;;;;;;;6.43;4.70;;;;;;;18.14;100.00;100045.59;5566271;32;34117;-68
2023/06/27 01:04:13;;;;;;;7.90;4.55;;;;;;;18.04;100.00;100035.38;5566177;32;32740;-68
2023/06/27 01:07:46;;;;;;;9.48;4.72;;;;;;;17.99;100.00;100040.59;5566098;32;34217;-68
2023/06/27 01:11:13;;;;;;;6.07;4.45;;;;;;;17.97;100.00;100036.50;5538720;31;34111;-68
2023/06/27 01:14:18;;;;;;;7.57;4.45;;;;;;;17.90;100.00;100049.19;5566043;32;33881;-68
2023/06/27 01:17:21;;;;;;;6.53;4.35;;;;;;;17.90;100.00;100044.63;5565962;32;34491;-68
2023/06/27 01:20:25;;;;;;;11.90;4.97;;;;;;;17.85;100.00;100036.44;5566144;32;34295;-68
2023/06/27 01:23:53;;;;;;;5.40;4.32;;;;;;;17.83;100.00;100032.31;5564945;32;33882;-68
2023/06/27 01:26:56;;;;;;;6.03;4.75;;;;;;;17.76;100.00;100030.53;5565786;32;33974;-68
2023/06/27 01:29:59;;;;;;;7.00;4.72;;;;;;;17.69;100.00;100024.41;5565612;32;34845;-68
2023/06/27 01:33:11;;;;;;;12.75;4.93;;;;;;;17.68;100.00;100009.34;5566643;32;34314;-68
2023/06/27 01:36:24;;;;;;;6.50;4.70;;;;;;;17.63;100.00;100011.06;5568306;32;34272;-68
2023/06/27 01:39:45;;;;;;;8.23;4.53;;;;;;;17.57;100.00;100010.06;5567673;32;34177;-68
2023/06/27 01:42:53;;;;;;;6.50;4.87;;;;;;;17.53;100.00;100005.34;5568315;32;34639;-68
2023/06/27 01:45:57;;;;;;;7.12;4.78;;;;;;;17.52;100.00;100006.41;5568255;32;34111;-68
2023/06/27 01:49:01;;;;;;;5.55;4.60;;;;;;;17.49;100.00;99999.63;5568310;32;34077;-68
2023/06/27 01:52:05;;;;;;;7.68;4.70;;;;;;;17.49;100.00;100004.16;5568529;31;34399;-68
2023/06/27 01:55:08;;;;;;;6.82;4.85;;;;;;;17.47;100.00;99995.53;5554488;32;34558;-68
2023/06/27 01:58:12;;;;;;;7.80;5.03;;;;;;;17.40;100.00;99995.59;5568425;32;34079;-67
2023/06/27 02:01:15;;;;;;;8.40;4.85;;;;;;;17.35;100.00;99990.91;5568196;32;34140;-68
2023/06/27 02:04:18;;;;;;;6.07;5.07;;;;;;;17.37;100.00;99986.16;5568208;32;33921;-68
2023/06/27 02:07:21;;;;;;;7.35;4.90;;;;;;;17.32;100.00;99998.56;5568524;32;34173;-68
2023/06/27 02:10:24;;;;;;;7.43;4.95;;;;;;;17.30;100.00;100000.63;5568157;32;34248;-68
2023/06/27 02:13:26;;;;;;;9.43;5.30;;;;;;;17.28;100.00;100002.75;5568168;32;34084;-68
2023/06/27 02:16:29;;;;;;;6.20;4.97;;;;;;;17.28;100.00;100008.09;5567982;32;35243;-68
2023/06/27 02:19:32;;;;;;;8.07;5.10;;;;;;;17.30;100.00;100008.69;5568112;32;34071;-68
2023/06/27 02:22:35;;;;;;;6.78;5.00;;;;;;;17.34;100.00;99999.97;5568103;32;34208;-68
2023/06/27 02:25:43;;;;;;;6.20;4.85;;;;;;;17.37;100.00;99991.50;5568009;32;35123;-68
2023/06/27 02:28:45;;;;;;;8.95;5.12;;;;;;;17.38;100.00;99986.94;5568006;32;35096;-68
2023/06/27 02:31:48;;;;;;;8.50;5.25;;;;;;;17.37;100.00;99991.50;5568307;32;34532;-68
2023/06/27 02:34:51;;;;;;;7.35;4.75;;;;;;;17.36;100.00;99981.81;5568187;32;35203;-68
2023/06/27 02:37:54;;;;;;;8.65;5.10;;;;;;;17.33;100.00;99976.88;5554052;32;34730;-68
2023/06/27 02:40:56;;;;;;;11.05;5.50;;;;;;;17.34;100.00;99967.78;5567554;32;34040;-69
2023/06/27 02:44:00;;;;;;;8.77;5.00;;;;;;;17.47;100.00;99961.50;5567469;32;34848;-69
2023/06/27 02:47:02;;;;;;;8.43;5.32;;;;;;;17.52;100.00;99958.16;5567853;32;33849;-68
2023/06/27 02:50:05;;;;;;;9.15;5.10;;;;;;;17.47;100.00;99964.19;5567785;32;33813;-67
2023/06/27 02:53:09;;;;;;;9.15;5.07;;;;;;;17.37;100.00;99964.69;5567769;32;34739;-68
2023/06/27 02:56:11;;;;;;;7.93;4.97;;;;;;;17.30;100.00;99966.59;5567869;32;34961;-69
2023/06/27 02:59:15;;;;;;;6.50;5.18;;;;;;;17.27;100.00;99964.38;5567845;32;34904;-68
2023/06/27 03:02:18;;;;;;;10.00;5.28;;;;;;;17.30;100.00;99963.09;5568025;32;35146;-68
2023/06/27 03:05:21;;;;;;;9.23;5.43;;;;;;;17.30;100.00;99960.41;5568094;32;34551;-68
2023/06/27 03:08:25;;;;;;;10.00;5.35;;;;;;;17.29;100.00;99981.03;5567716;32;34020;-68
2023/06/27 03:11:28;;;;;;;11.38;5.72;;;;;;;17.28;100.00;99990.12;5567742;32;34004;-68
2023/06/27 03:14:31;;;;;;;8.48;5.80;;;;;;;17.26;100.00;100002.94;5567513;32;34049;-68
2023/06/27 03:17:34;;;;;;;10.73;5.65;;;;;;;17.32;100.00;99998.56;5567731;32;34789;-68
2023/06/27 03:20:37;;;;;;;7.78;5.50;;;;;;;17.40;100.00;99982.19;5567766;32;34558;-68
2023/06/27 03:23:40;;;;;;;7.50;4.82;;;;;;;17.54;100.00;99978.31;5567569;32;34186;-68
2023/06/27 03:26:43;;;;;;;13.15;5.20;;;;;;;17.61;100.00;99979.13;5567363;32;34150;-68
2023/06/27 03:29:46;;;;;;;9.55;5.43;;;;;;;17.63;100.00;99974.34;5567508;32;34103;-68
2023/06/27 03:32:49;;;;;;;10.32;5.00;;;;;;;17.69;100.00;99980.66;5553942;32;34646;-69
2023/06/27 03:35:52;;;;;;;6.97;5.40;;;;;;;17.72;100.00;99974.84;5567516;32;33956;-68
2023/06/27 03:38:55;;;;;;;7.45;5.20;;;;;;;17.76;100.00;99979.56;5553624;32;34025;-68
2023/06/27 03:41:57;;;;;;;9.55;5.72;;;;;;;17.82;100.00;99977.81;5567771;32;34009;-68
2023/06/27 03:45:01;;;;;;;11.07;5.22;;;;;;;17.92;100.00;99971.94;5567361;32;34006;-69
2023/06/27 03:48:04;;;;;;;9.68;5.20;;;;;;;18.05;100.00;99972.59;5567228;32;34767;-69
2023/06/27 03:51:07;;;;;;;8.57;5.03;;;;;;;18.24;100.00;99971.53;5567174;32;34704;-69
2023/06/27 03:54:09;;;;;;;7.82;5.35;;;;;;;18.52;100.00;99965.53;5567276;32;34570;-69
2023/06/27 03:57:12;;;;;;;11.27;5.93;;;;;;;18.69;100.00;99960.34;5566544;32;34104;-69
2023/06/27 04:00:16;;;;;;;14.13;6.65;;;;;;;18.87;100.00;99960.28;5567027;32;34757;-69
2023/06/27 04:03:19;;;;;;;13.30;6.65;;;;;;;19.21;100.00;99947.91;5566420;32;34178;-68
2023/06/27 04:06:22;;;;;;;13.75;6.35;;;;;;;19.48;100.00;99962.53;5566634;32;34260;-69
2023/06/27 04:09:24;;;;;;;16.80;8.30;;;;;;;19.65;100.00;99961.81;5567076;32;35071;-69
2023/06/27 04:12:27;;;;;;;82.20;11.90;;;;;;;19.70;100.00;99957.34;5566953;32;34838;-69
2023/06/27 04:15:30;;;;;;;16.30;7.55;;;;;;;19.89;100.00;99952.63;5567051;32;34099;-68
2023/06/27 04:18:33;;;;;;;11.82;7.07;;;;;;;19.93;100.00;99969.94;5566996;32;34579;-68
2023/06/27 04:21:35;;;;;;;14.48;7.47;;;;;;;20.00;100.00;99973.28;5567054;32;34801;-68
2023/06/27 04:24:38;;;;;;;11.63;7.00;;;;;;;20.19;100.00;99985.50;5567145;32;34578;-68
2023/06/27 04:27:41;;;;;;;25.40;8.20;;;;;;;20.22;100.00;99990.44;5566785;32;34280;-69
2023/06/27 04:30:44;;;;;;;11.68;7.30;;;;;;;20.29;100.00;99992.97;5566711;32;34185;-69
2023/06/27 04:33:47;;;;;;;12.37;7.32;;;;;;;20.34;100.00;99993.94;5566481;32;34765;-69
2023/06/27 04:36:51;;;;;;;11.68;7.40;;;;;;;20.08;100.00;99996.34;5566728;32;34171;-68
2023/06/27 04:39:53;;;;;;;12.27;7.60;;;;;;;20.03;100.00;100010.53;5566402;32;34110;-69
2023/06/27 04:42:56;;;;;;;11.80;7.72;;;;;;;19.96;100.00;100001.75;5566591;32;33827;-69
2023/06/27 04:45:59;;;;;;;16.33;8.35;;;;;;;20.02;100.00;100003.50;5566499;32;33965;-69
2023/06/27 04:49:02;;;;;;;15.20;8.20;;;;;;;19.91;100.00;99996.25;5566480;32;34113;-69
2023/06/27 04:52:05;;;;;;;16.05;8.23;;;;;;;19.93;100.00;99964.53;5566462;32;34879;-68
2023/06/27 04:55:08;;;;;;;19.85;9.85;;;;;;;19.68;100.00;99972.91;5566355;32;34021;-67
2023/06/27 04:58:11;;;;;;;22.95;10.55;;;;;;;19.21;100.00;99965.91;5565679;32;34699;-67
2023/06/27 05:01:14;;;;;;;19.85;10.38;;;;;;;18.74;100.00;99951.59;5565997;32;34284;-67
2023/06/27 05:04:17;;;;;;;20.58;10.30;;;;;;;18.50;100.00;99986.44;5565227;32;34728;-67
2023/06/27 05:07:20;;;;;;;20.98;9.82;;;;;;;18.44;100.00;99990.06;5567155;32;33837;-67
2023/06/27 05:10:22;;;;;;;21.02;10.02;;;;;;;18.57;100.00;99987.19;5568673;32;34507;-67
2023/06/27 05:13:25;;;;;;;17.85;9.93;;;;;;;18.84;100.00;99989.47;5554583;32;34448;-67
2023/06/27 05:16:28;;;;;;;22.05;10.90;;;;;;;19.04;100.00;99987.28;5568477;32;34156;-68
2023/06/27 05:19:31;;;;;;;19.87;10.25;;;;;;;19.38;100.00;99985.66;5568642;32;33928;-67
2023/06/27 05:22:33;;;;;;;18.55;9.95;;;;;;;19.61;100.00;99982.16;5568280;32;34550;-68
2023/06/27 05:25:36;;;;;;;21.20;10.07;;;;;;;19.88;100.00;100004.81;5566215;32;34088;-68
2023/06/27 05:28:40;;;;;;;19.35;8.77;;;;;;;20.08;100.00;99999.88;5567916;32;34569;-67
2023/06/27 05:31:43;;;;;;;25.33;9.98;;;;;;;20.28;100.00;100000.22;5564765;32;34517;-68
2023/06/27 05:34:45;;;;;;;17.33;9.07;;;;;;;20.61;100.00;99999.56;5568067;32;33856;-68
2023/06/27 05:37:51;;;;;;;21.20;9.88;;;;;;;20.80;100.00;99995.59;5562471;32;34238;-68
2023/06/27 05:40:53;;;;;;;26.15;9.77;;;;;;;21.17;100.00;100008.59;5561369;32;34107;-69
2023/06/27 05:43:56;;;;;;;25.48;9.73;;;;;;;21.41;100.00;100004.66;5563086;32;33857;-69
2023/06/27 05:46:59;;;;;;;19.77;9.40;;;;;;;21.59;100.00;100009.78;5548093;32;34151;-69
2023/06/27 05:50:02;;;;;;;22.50;8.85;;;;;;;21.80;100.00;100001.94;5547925;32;35049;-69
2023/06/27 05:53:05;;;;;;;19.73;8.80;;;;;;;21.90;100.00;100005.59;5568105;31;34299;-69
2023/06/27 05:56:08;;;;;;;40.63;10.55;;;;;;;22.06;100.00;100020.97;5577071;31;34788;-69
2023/06/27 05:59:11;;;;;;;32.95;10.73;;;;;;;21.88;100.00;100017.75;5585330;31;34277;-68
2023/06/27 06:02:14;;;;;;;26.17;8.88;;;;;;;22.45;100.00;100015.47;5588951;31;34953;-70
2023/06/27 06:05:18;;;;;;;20.23;8.60;;;;;;;22.92;100.00;100024.63;5587119;31;34322;-71
2023/06/27 06:08:21;;;;;;;16.45;8.50;;;;;;;22.74;100.00;100019.59;5586958;31;34209;-70
2023/06/27 06:11:24;;;;;;;15.73;7.28;;;;;;;22.96;100.00;100023.03;5577497;31;34144;-70
2023/06/27 06:14:27;;;;;;;36.03;8.45;;;;;;;23.21;100.00;100010.78;5575860;31;33952;-69
2023/06/27 06:17:30;;;;;;;12.90;6.55;;;;;;;23.52;100.00;100007.25;5585641;31;34872;-70
2023/06/27 06:20:32;;;;;;;10.73;6.40;;;;;;;23.55;100.00;100005.91;5572963;31;34744;-67
2023/06/27 06:23:35;;;;;;;9.85;5.80;;;;;;;23.70;100.00;100006.81;5573833;31;34152;-69
2023/06/27 06:26:38;;;;;;;9.25;6.15;;;;;;;23.88;100.00;100000.13;5567055;32;34669;-69
2023/06/27 06:29:41;;;;;;;23.12;5.87;;;;;;;23.19;100.00;100005.63;5566354;32;34493;-69
2023/06/27 06:32:44;;;;;;;10.27;6.22;;;;;;;23.36;100.00;100006.28;5571358;31;34210;-69
2023/06/27 06:35:47;;;;;;;358.67;16.95;;;;;;;23.36;100.00;100013.59;5567433;32;33936;-68
2023/06/27 06:38:50;;;;;;;10.65;6.15;;;;;;;23.18;100.00;100011.31;5567124;31;33827;-68
2023/06/27 06:41:53;;;;;;;12.40;6.05;;;;;;;22.91;100.00;100027.56;5580259;31;34882;-69
2023/06/27 06:44:56;;;;;;;8.88;6.50;;;;;;;22.83;100.00;100025.34;5571642;31;33101;-69
2023/06/27 06:47:59;;;;;;;10.27;6.35;;;;;;;22.73;100.00;100022.53;5578587;31;34140;-68
2023/06/27 06:51:02;;;;;;;12.07;6.43;;;;;;;22.75;100.00;100034.72;5582189;31;34013;-68
2023/06/27 06:54:05;;;;;;;9.75;6.72;;;;;;;22.56;100.00;100046.94;5586390;31;34693;-67
2023/06/27 06:57:09;;;;;;;10.25;6.37;;;;;;;22.26;100.00;100044.72;5576827;31;35378;-66
2023/06/27 07:00:13;;;;;;;14.63;7.15;;;;;;;21.95;100.00;100051.63;5571091;31;34035;-68
2023/06/27 07:03:16;;;;;;;11.40;6.82;;;;;;;21.67;100.00;100057.16;5571026;31;34089;-68
2023/06/27 07:06:19;;;;;;;11.48;6.95;;;;;;;21.78;100.00;100044.59;5586461;31;34194;-68
2023/06/27 07:09:22;;;;;;;8.85;7.45;;;;;;;21.53;100.00;100040.47;5583850;31;33970;-65
2023/06/27 07:12:25;;;;;;;12.63;7.47;;;;;;;21.59;100.00;100060.28;5571662;31;34805;-67
2023/06/27 07:15:29;;;;;;;9.88;7.85;;;;;;;21.32;100.00;100076.31;5575108;31;34105;-67
2023/06/27 07:18:31;;;;;;;10.65;7.72;;;;;;;21.16;100.00;100085.19;5576159;31;34732;-66
2023/06/27 07:21:34;;;;;;;13.15;7.72;;;;;;;21.43;100.00;100091.59;5581132;31;34555;-68
2023/06/27 07:24:37;;;;;;;12.52;7.85;;;;;;;21.39;100.00;100087.75;5577138;31;33797;-68
2023/06/27 07:27:42;;;;;;;11.65;8.30;;;;;;;21.33;100.00;100087.91;5571767;31;34710;-68
2023/06/27 07:30:45;;;;;;;10.88;7.68;;;;;;;21.52;100.00;100092.00;5568036;31;34148;-66
2023/06/27 07:33:48;;;;;;;10.50;8.30;;;;;;;21.32;100.00;100091.66;5566653;32;34686;-65
2023/06/27 07:36:51;;;;;;;12.20;8.63;;;;;;;21.22;100.00;100078.81;5567068;32;34151;-67
2023/06/27 07:39:54;;;;;;;15.10;8.55;;;;;;;21.36;100.00;100079.31;5567119;32;34104;-68
2023/06/27 07:42:56;;;;;;;11.93;8.32;;;;;;;21.61;100.00;100090.53;5567220;32;34709;-66
2023/06/27 07:45:59;;;;;;;14.30;8.02;;;;;;;22.34;100.00;100079.41;5566826;32;34163;-68
2023/06/27 07:51:15;;;;;;;13.27;7.97;;;;;;;23.46;100.00;100080.56;5614999;31;198890;-65
2023/06/27 07:54:24;;;;;;;11.60;8.30;;;;;;;23.46;100.00;100080.56;5601643;31;34643;-66
2023/06/27 07:57:27;;;;;;;13.77;8.40;;;;;;;22.35;100.00;100081.06;5601168;31;35051;-68
2023/06/27 08:00:30;;;;;;;9.95;8.20;;;;;;;22.16;100.00;100081.59;5601155;31;33952;-69
2023/06/27 08:03:34;;;;;;;15.38;8.65;;;;;;;22.23;100.00;100079.53;5600958;31;32780;-68
2023/06/27 08:06:36;;;;;;;10.90;8.57;;;;;;;22.79;100.00;100073.75;5601038;31;33786;-68
2023/06/27 08:09:40;;;;;;;10.85;7.95;;;;;;;22.96;100.00;100081.72;5600872;31;34387;-69
2023/06/27 08:12:42;;;;;;;15.38;8.00;;;;;;;22.99;100.00;100091.25;5600664;31;34096;-69
2023/06/27 08:15:45;;;;;;;11.55;8.02;;;;;;;22.73;100.00;100092.84;5600578;31;34605;-70
2023/06/27 08:18:48;;;;;;;15.05;8.27;;;;;;;22.60;100.00;100088.63;5601078;31;34810;-67
2023/06/27 08:21:50;;;;;;;11.57;8.05;;;;;;;22.58;100.00;100100.75;5601037;31;34911;-68
2023/06/27 08:24:53;;;;;;;12.60;7.90;;;;;;;22.32;100.00;100092.34;5600907;31;34511;-69
2023/06/27 08:27:56;;;;;;;13.60;8.90;;;;;;;22.63;100.00;100100.81;5600644;31;33657;-68
2023/06/27 08:30:58;;;;;;;11.30;7.45;;;;;;;22.96;100.00;100101.47;5599335;31;34162;-69
2023/06/27 08:34:01;;;;;;;12.07;8.50;;;;;;;22.99;100.00;100094.75;5600524;31;34412;-70
2023/06/27 08:37:04;;;;;;;15.07;7.70;;;;;;;22.99;100.00;100086.66;5600959;31;34118;-67
2023/06/27 08:40:09;;;;;;;12.57;8.05;;;;;;;23.38;100.00;100093.47;5601040;31;34163;-66
2023/06/27 08:43:12;;;;;;;13.77;8.40;;;;;;;23.26;100.00;100097.44;5600666;31;34214;-68
2023/06/27 08:46:19;;;;;;;14.98;8.10;;;;;;;22.84;100.00;100091.91;5600758;31;33820;-68
2023/06/27 08:49:26;;;;;;;13.88;8.40;;;;;;;22.57;100.00;100091.84;5600393;31;33934;-69
2023/06/27 08:52:36;;;;;;;11.88;8.02;;;;;;;22.58;100.00;100101.59;5600433;31;34065;-70
2023/06/27 08:55:44;;;;;;;11.30;8.30;;;;;;;22.28;100.00;100104.72;5600423;31;34298;-69
2023/06/27 08:58:59;;;;;;;12.23;8.60;;;;;;;22.25;100.00;100097.13;5598944;31;34327;-69
2023/06/27 09:02:05;;;;;;;12.80;8.20;;;;;;;22.34;100.00;100095.63;5589846;31;33644;-68
2023/06/27 09:05:09;;;;;;;24.95;9.18;;;;;;;22.15;100.00;100083.50;5587231;31;33601;-70
2023/06/27 09:08:12;;;;;;;17.05;8.52;;;;;;;22.29;100.00;100098.25;5587461;31;33567;-68
2023/06/27 09:11:16;;;;;;;12.25;8.82;;;;;;;22.15;100.00;100107.81;5578638;31;32995;-69
2023/06/27 09:14:19;;;;;;;12.90;8.75;;;;;;;22.25;100.00;100109.81;5566797;32;34495;-69
2023/06/27 09:17:22;;;;;;;11.63;8.45;;;;;;;22.43;100.00;100112.22;5567462;32;34508;-68
2023/06/27 09:20:24;;;;;;;16.90;9.00;;;;;;;22.56;100.00;100108.31;5567692;32;33383;-69
2023/06/27 09:23:29;;;;;;;14.77;9.15;;;;;;;22.49;100.00;100103.94;5566636;32;33659;-68
2023/06/27 09:26:31;;;;;;;11.93;8.80;;;;;;;22.51;100.00;100117.19;5566896;32;35085;-67
2023/06/27 09:29:36;;;;;;;11.07;8.40;;;;;;;22.60;100.00;100118.37;5567283;32;33473;-68
2023/06/27 09:32:58;;;;;;;11.35;8.63;;;;;;;22.81;100.00;100122.16;5567653;32;33690;-66
2023/06/27 09:36:01;;;;;;;15.07;8.32;;;;;;;23.36;100.00;100121.87;5566953;31;33445;-69
2023/06/27 09:39:10;;;;;;;10.48;8.05;;;;;;;23.67;100.00;100129.19;5573884;31;33935;-70
2023/06/27 09:42:13;;;;;;;15.00;8.20;;;;;;;24.08;100.00;100133.00;5575071;31;34457;-69
2023/06/27 09:45:16;;;;;;;13.70;7.93;;;;;;;24.14;100.00;100134.66;5593745;31;33903;-68
2023/06/27 09:48:21;;;;;;;17.10;8.02;;;;;;;24.37;100.00;100132.63;5588410;31;33744;-67
2023/06/27 09:51:24;;;;;;;13.90;7.32;;;;;;;24.23;100.00;100146.69;5587011;31;34225;-69
2023/06/27 09:54:30;;;;;;;9.48;7.35;;;;;;;24.43;100.00;100142.44;5586535;31;35277;-69
2023/06/27 09:57:33;;;;;;;9.68;7.03;;;;;;;25.37;100.00;100142.16;5587397;31;33789;-71
2023/06/27 10:00:38;;;;;;;13.88;7.50;;;;;;;24.47;100.00;100128.06;5587323;31;33462;-70
2023/06/27 10:03:48;;;;;;;15.38;7.10;;;;;;;24.18;100.00;100140.41;5586858;31;33508;-71
2023/06/27 10:06:51;;;;;;;15.30;6.90;;;;;;;24.78;100.00;100131.72;5587156;31;34083;-70
2023/06/27 10:09:54;;;;;;;14.77;7.05;;;;;;;24.52;100.00;100128.09;5587039;31;33284;-69
2023/06/27 10:12:57;;;;;;;10.18;6.22;;;;;;;25.42;100.00;100147.59;5585913;31;33790;-69
2023/06/27 10:16:02;;;;;;;9.77;6.00;;;;;;;25.17;100.00;100140.25;5587026;31;33768;-70
2023/06/27 10:19:05;;;;;;;9.90;5.97;;;;;;;25.15;98.18;100147.84;5585886;31;33835;-71
2023/06/27 10:22:15;;;;;;;11.32;5.65;;;;;;;25.20;96.55;100131.56;5586920;31;33607;-70
2023/06/27 10:25:19;;;;;;;6.30;5.60;;;;;;;25.62;95.07;100144.09;5586976;31;33477;-70
2023/06/27 10:28:22;;;;;;;9.05;5.45;;;;;;;25.34;93.78;100157.09;5586376;31;33529;-70
2023/06/27 10:31:44;;;;;;;7.10;5.28;;;;;;;25.27;95.47;100150.31;5586635;31;33493;-70
2023/06/27 10:34:48;;;;;;;11.65;5.97;;;;;;;24.77;96.43;100143.66;5586808;31;34614;-71
2023/06/27 10:38:08;;;;;;;6.97;5.37;;;;;;;24.51;100.00;100145.44;5586934;31;33484;-71
2023/06/27 10:41:23;;;;;;;6.60;5.22;;;;;;;24.34;100.00;100133.16;5585798;31;34069;-71
2023/06/27 10:44:27;;;;;;;6.97;5.35;;;;;;;23.88;100.00;100148.31;5586471;31;33500;-71
2023/06/27 10:47:35;;;;;;;9.07;5.22;;;;;;;23.86;100.00;100151.28;5586552;31;33665;-71
2023/06/27 10:50:41;;;;;;;8.02;5.32;;;;;;;24.06;100.00;100156.03;5586317;31;33791;-69
2023/06/27 10:54:08;;;;;;;9.00;4.97;;;;;;;23.94;99.49;100153.50;5586283;31;33436;-70
2023/06/27 10:57:18;;;;;;;8.60;4.72;;;;;;;24.01;100.00;100164.12;5585928;31;33628;-68
2023/06/27 11:00:23;;;;;;;9.52;4.95;;;;;;;23.89;98.65;100158.87;5582797;31;33866;-69
2023/06/27 11:03:27;;;;;;;9.57;4.95;;;;;;;23.96;99.04;100162.22;5571214;31;33415;-69
2023/06/27 11:06:45;;;;;;;7.15;4.30;;;;;;;23.71;97.60;100162.84;5586291;31;32508;-69
2023/06/27 11:09:54;;;;;;;7.35;4.30;;;;;;;23.66;98.54;100172.81;5585508;31;33608;-69
2023/06/27 11:13:21;;;;;;;6.43;4.22;;;;;;;23.55;97.82;100166.47;5585442;31;34755;-70
2023/06/27 11:16:24;;;;;;;14.40;4.57;;;;;;;23.61;100.00;100173.59;5586297;31;33615;-69
2023/06/27 11:19:27;;;;;;;9.35;4.32;;;;;;;23.38;100.00;100190.94;5581294;31;33760;-70
2023/06/27 11:22:31;;;;;;;11.95;4.53;;;;;;;23.36;100.00;100200.38;5573383;31;34207;-69
2023/06/27 11:25:37;;;;;;;7.55;4.00;;;;;;;23.16;100.00;100213.72;5566432;32;33493;-69
2023/06/27 11:28:39;;;;;;;8.50;4.62;;;;;;;22.96;100.00;100220.53;5578474;31;33782;-65
2023/06/27 11:31:43;;;;;;;6.65;4.20;;;;;;;22.97;100.00;100215.94;5578563;31;34321;-69
2023/06/27 11:34:46;;;;;;;5.68;4.55;;;;;;;22.86;100.00;100230.41;5569690;31;35249;-68
2023/06/27 11:37:55;;;;;;;8.00;4.45;;;;;;;22.88;100.00;100233.69;5586225;31;34445;-68
2023/06/27 11:40:58;;;;;;;6.62;4.45;;;;;;;22.87;100.00;100226.63;5586158;31;33502;-67
2023/06/27 11:44:01;;;;;;;6.65;4.62;;;;;;;23.10;100.00;100217.41;5583384;31;34711;-68
2023/06/27 11:47:05;;;;;;;11.82;4.60;;;;;;;22.91;100.00;100223.16;5586005;31;34249;-68
2023/06/27 11:50:10;;;;;;;6.68;4.80;;;;;;;23.08;100.00;100217.69;5585391;31;34422;-67
2023/06/27 11:53:12;;;;;;;6.47;4.50;;;;;;;23.05;100.00;100220.06;5585280;31;33665;-68
2023/06/27 11:56:16;;;;;;;6.95;4.70;;;;;;;23.05;100.00;100229.00;5581762;31;34314;-70
2023/06/27 11:59:31;;;;;;;6.87;4.65;;;;;;;22.92;100.00;100237.53;5576557;31;33749;-70
2023/06/27 12:02:35;;;;;;;10.38;4.90;;;;;;;22.49;100.00;100235.56;5570342;31;33655;-71
2023/06/27 12:05:43;;;;;;;8.70;5.25;;;;;;;22.54;100.00;100238.34;5576714;31;33592;-70
2023/06/27 12:08:45;;;;;;;10.30;5.43;;;;;;;22.52;100.00;100245.88;5585621;31;33396;-70
2023/06/27 12:11:58;;;;;;;8.00;5.00;;;;;;;22.50;100.00;100234.50;5584637;31;33876;-68
2023/06/27 12:15:14;;;;;;;13.62;5.28;;;;;;;22.28;100.00;100233.63;5585001;31;34267;-70
2023/06/27 12:18:28;;;;;;;9.32;5.65;;;;;;;22.26;100.00;100219.56;5585610;31;33733;-71
2023/06/27 12:21:32;;;;;;;10.20;5.60;;;;;;;22.33;100.00;100228.31;5585769;31;33795;-70
2023/06/27 12:24:36;;;;;;;11.88;6.03;;;;;;;22.12;100.00;100232.59;5585382;31;33630;-68
2023/06/27 12:27:39;;;;;;;11.25;5.62;;;;;;;21.89;100.00;100219.22;5585542;31;33421;-68
2023/06/27 12:30:42;;;;;;;7.12;5.65;;;;;;;21.89;100.00;100217.34;5585278;31;33999;-69
2023/06/27 12:33:44;;;;;;;10.05;5.80;;;;;;;21.82;100.00;100205.06;5585217;31;34336;-70
2023/06/27 12:36:47;;;;;;;7.40;5.37;;;;;;;21.84;100.00;100205.63;5586751;31;33500;-69
2023/06/27 12:39:50;;;;;;;9.23;5.65;;;;;;;22.06;100.00;100211.97;5586516;31;34771;-69
2023/06/27 12:42:53;;;;;;;8.00;5.53;;;;;;;22.04;100.00;100198.69;5568367;32;33752;-69
2023/06/27 12:46:04;;;;;;;8.18;5.62;;;;;;;21.94;100.00;100201.25;5579213;31;33524;-69
2023/06/27 12:49:07;;;;;;;9.88;5.80;;;;;;;22.11;100.00;100214.75;5587500;31;33865;-67
2023/06/27 12:52:10;;;;;;;7.30;5.90;;;;;;;22.19;100.00;100216.19;5587407;31;33417;-68
2023/06/27 12:55:14;;;;;;;10.30;5.72;;;;;;;22.12;100.00;100226.38;5586988;31;33055;-69
2023/06/27 12:58:16;;;;;;;14.10;5.62;;;;;;;22.06;100.00;100225.47;5587463;31;34149;-68
2023/06/27 13:01:23;;;;;;;6.78;5.65;;;;;;;21.87;100.00;100222.19;5587371;31;33712;-68
2023/06/27 13:04:31;;;;;;;7.87;5.65;;;;;;;21.83;100.00;100207.53;5587707;31;34259;-69
2023/06/27 13:07:34;;;;;;;8.13;5.93;;;;;;;21.96;100.00;100180.22;5587567;31;34665;-69
2023/06/27 13:10:37;;;;;;;6.97;5.50;;;;;;;21.92;100.00;100176.34;5587603;31;33820;-69
2023/06/27 13:13:40;;;;;;;8.60;5.75;;;;;;;21.81;100.00;100169.16;5587631;31;34969;-68
2023/06/27 13:16:43;;;;;;;8.15;5.50;;;;;;;21.69;100.00;100166.50;5568068;31;32388;-65
2023/06/27 13:19:46;;;;;;;7.65;5.40;;;;;;;21.71;100.00;100181.66;5567509;32;34068;-67
2023/06/27 13:22:49;;;;;;;8.43;5.60;;;;;;;21.59;100.00;100177.16;5567633;32;33730;-67
2023/06/27 13:25:52;;;;;;;30.90;6.57;;;;;;;21.63;100.00;100199.09;5571441;31;33606;-66
2023/06/27 13:28:55;;;;;;;9.10;5.65;;;;;;;21.61;100.00;100223.63;5586994;31;34199;-66
2023/06/27 13:31:58;;;;;;;8.52;5.60;;;;;;;21.56;100.00;100228.13;5585982;31;33544;-70
2023/06/27 13:35:01;;;;;;;8.25;5.07;;;;;;;21.61;100.00;100212.81;5587350;31;34478;-70
2023/06/27 13:38:05;;;;;;;11.25;5.55;;;;;;;21.72;100.00;100213.81;5587595;31;33887;-70
2023/06/27 13:41:08;;;;;;;9.50;5.45;;;;;;;22.06;100.00;100203.88;5587187;31;33544;-69
2023/06/27 13:44:11;;;;;;;7.15;5.15;;;;;;;22.48;100.00;100194.19;5583703;31;34382;-67
2023/06/27 13:47:13;;;;;;;7.68;5.00;;;;;;;22.52;100.00;100189.09;5586015;31;33718;-69
2023/06/27 13:50:16;;;;;;;10.43;5.32;;;;;;;22.15;100.00;100190.75;5577473;31;34551;-71
2023/06/27 13:53:20;;;;;;;9.75;4.78;;;;;;;21.96;100.00;100188.31;5576244;31;34394;-71
2023/06/27 13:56:23;;;;;;;7.22;5.10;;;;;;;21.96;100.00;100174.00;5575071;31;33779;-71
2023/06/27 13:59:27;;;;;;;11.02;4.65;;;;;;;22.00;100.00;100172.44;5567468;32;33672;-70
2023/06/27 14:02:30;;;;;;;7.93;4.53;;;;;;;21.99;100.00;100168.91;5567194;32;34756;-70
2023/06/27 14:05:48;;;;;;;5.80;4.25;;;;;;;22.15;100.00;100172.66;5566564;31;33728;-70
2023/06/27 14:08:51;;;;;;;5.82;4.20;;;;;;;22.14;100.00;100176.41;5576368;31;34439;-70